createdAt,value
2023-04-15T00:00:30.765Z,98929.22
2023-04-15T00:01:12.180Z,98920.34
2023-04-15T00:01:46.091Z,98942.94
2023-04-15T00:02:33.151Z,98922.88
2023-04-15T00:03:07.364Z,98932.06
2023-04-15T00:04:01.007Z,98929.13
2023-04-15T00:04:37.460Z,98937.00
2023-04-15T00:05:24.900Z,98921.38
2023-04-15T00:05:59.893Z,98933.19
2023-04-15T00:06:47.947Z,98945.81
2023-04-15T00:07:22.032Z,98933.38
2023-04-15T00:08:01.997Z,98932.53
2023-04-15T00:08:42.346Z,98934.03
2023-04-15T00:09:21.904Z,98945.00
2023-04-15T00:10:04.359Z,98950.31
2023-04-15T00:10:44.889Z,98948.63
2023-04-15T00:11:25.105Z,98943.97
2023-04-15T00:12:04.949Z,98943.19
2023-04-15T00:12:44.982Z,98941.03
2023-04-15T00:13:24.948Z,98942.72
2023-04-15T00:14:07.455Z,98944.13
2023-04-15T00:14:47.907Z,98930.94
2023-04-15T00:15:42.095Z,98955.59
2023-04-15T00:16:35.982Z,98954.75
2023-04-15T00:17:30.922Z,98963.06
2023-04-15T00:18:27.163Z,98963.81
2023-04-15T00:19:06.995Z,98949.13
2023-04-15T00:19:46.895Z,98940.22
2023-04-15T00:20:26.963Z,98959.19
2023-04-15T00:21:07.096Z,98956.41
2023-04-15T00:21:48.011Z,98942.66
2023-04-15T00:22:27.922Z,98963.91
2023-04-15T00:23:09.998Z,98956.13
2023-04-15T00:23:50.912Z,98957.91
2023-04-15T00:24:31.599Z,98959.38
2023-04-15T00:25:12.895Z,98949.47
2023-04-15T00:25:53.989Z,98954.16
2023-04-15T00:26:34.879Z,98931.59
2023-04-15T00:27:15.267Z,98941.88
2023-04-15T00:27:54.916Z,98958.00
2023-04-15T00:28:35.363Z,98968.84
2023-04-15T00:29:16.928Z,98957.50
2023-04-15T00:29:58.243Z,98957.06
2023-04-15T00:30:37.969Z,98947.19
2023-04-15T00:31:18.078Z,98956.34
2023-04-15T00:31:57.886Z,98953.31
2023-04-15T00:32:37.963Z,98951.72
2023-04-15T00:33:19.888Z,98943.56
2023-04-15T00:34:01.046Z,98939.81
2023-04-15T00:34:40.897Z,98944.25
2023-04-15T00:35:21.688Z,98950.50
2023-04-15T00:36:01.915Z,98959.13
2023-04-15T00:36:42.273Z,98955.75
2023-04-15T00:37:22.881Z,98947.25
2023-04-15T00:38:04.695Z,98935.81
2023-04-15T00:38:45.897Z,98941.88
2023-04-15T00:39:28.125Z,98949.47
2023-04-15T00:40:08.955Z,98948.91
2023-04-15T00:40:49.955Z,98957.06
2023-04-15T00:41:30.923Z,98941.31
2023-04-15T00:42:12.003Z,98943.50
2023-04-15T00:42:51.871Z,98947.16
2023-04-15T00:43:32.012Z,98937.03
2023-04-15T00:44:13.890Z,98949.31
2023-04-15T00:44:53.982Z,98950.91
2023-04-15T00:45:36.936Z,98950.91
2023-04-15T00:46:20.701Z,98926.94
2023-04-15T00:47:00.877Z,98957.91
2023-04-15T00:47:43.051Z,98947.78
2023-04-15T00:48:22.868Z,98949.19
2023-04-15T00:49:02.977Z,98949.19
2023-04-15T00:49:42.874Z,98957.81
2023-04-15T00:50:24.003Z,98958.28
2023-04-15T00:51:03.867Z,98955.84
2023-04-15T00:51:44.743Z,98948.72
2023-04-15T00:52:24.854Z,98949.41
2023-04-15T00:53:05.002Z,98953.69
2023-04-15T00:53:44.890Z,98954.44
2023-04-15T00:54:26.569Z,98960.81
2023-04-15T00:55:08.028Z,98959.13
2023-04-15T00:55:47.957Z,98944.91
2023-04-15T00:56:30.948Z,98940.28
2023-04-15T00:57:13.021Z,98947.06
2023-04-15T00:57:53.867Z,98952.81
2023-04-15T00:58:35.005Z,98955.44
2023-04-15T00:59:15.875Z,98951.00
2023-04-15T00:59:56.089Z,98956.59
2023-04-15T01:00:36.868Z,98932.59
2023-04-15T01:01:17.189Z,98958.94
2023-04-15T01:02:04.033Z,98935.06
2023-04-15T01:02:39.290Z,98928.06
2023-04-15T01:03:28.079Z,98955.06
2023-04-15T01:04:04.082Z,98952.56
2023-04-15T01:04:50.842Z,98947.97
2023-04-15T01:05:25.046Z,98954.34
2023-04-15T01:06:11.873Z,98937.09
2023-04-15T01:06:45.960Z,98955.06
2023-04-15T01:07:25.866Z,98944.22
2023-04-15T01:08:05.938Z,98948.44
2023-04-15T01:08:45.874Z,98957.63
2023-04-15T01:09:26.262Z,98946.63
2023-04-15T01:10:06.862Z,98949.91
2023-04-15T01:10:46.949Z,98950.69
2023-04-15T01:11:27.836Z,98949.00
2023-04-15T01:12:08.696Z,98953.31
2023-04-15T01:12:49.919Z,98955.34
2023-04-15T01:13:31.212Z,98925.34
2023-04-15T01:14:11.858Z,98948.69
2023-04-15T01:14:51.989Z,98941.28
2023-04-15T01:15:31.841Z,98950.06
2023-04-15T01:16:13.280Z,98951.34
2023-04-15T01:16:53.891Z,98949.13
2023-04-15T01:17:34.023Z,98947.78
2023-04-15T01:18:14.886Z,98939.31
2023-04-15T01:18:55.973Z,98948.97
2023-04-15T01:19:35.868Z,98948.03
2023-04-15T01:20:16.674Z,98951.03
2023-04-15T01:20:57.851Z,98946.91
2023-04-15T01:21:40.967Z,98940.53
2023-04-15T01:22:20.869Z,98943.91
2023-04-15T01:23:01.938Z,98937.53
2023-04-15T01:23:45.859Z,98950.19
2023-04-15T01:24:27.162Z,98952.78
2023-04-15T01:25:39.867Z,98949.97
2023-04-15T01:26:21.600Z,98939.09
2023-04-15T01:27:02.857Z,98949.75
2023-04-15T01:27:45.369Z,98926.47
2023-04-15T01:28:26.845Z,98951.78
2023-04-15T01:29:07.858Z,98922.19
2023-04-15T01:29:44.938Z,98936.41
2023-04-15T01:30:33.873Z,98934.41
2023-04-15T01:31:19.929Z,98945.38
2023-04-15T01:32:07.881Z,98944.91
2023-04-15T01:32:42.669Z,98939.38
2023-04-15T01:33:29.826Z,98942.66
2023-04-15T01:34:03.916Z,98942.25
2023-04-15T01:34:44.867Z,98943.50
2023-04-15T01:35:25.974Z,98931.91
2023-04-15T01:36:06.818Z,98952.63
2023-04-15T01:36:46.955Z,98947.53
2023-04-15T01:37:26.831Z,98946.34
2023-04-15T01:38:13.602Z,98953.81
2023-04-15T01:38:54.841Z,98935.34
2023-04-15T01:39:35.403Z,98955.88
2023-04-15T01:40:16.881Z,98956.06
2023-04-15T01:40:57.466Z,98945.31
2023-04-15T01:41:37.841Z,98947.34
2023-04-15T01:42:17.903Z,98953.66
2023-04-15T01:42:58.815Z,98960.13
2023-04-15T01:43:39.060Z,98945.47
2023-04-15T01:44:18.834Z,98944.53
2023-04-15T01:44:58.934Z,98951.38
2023-04-15T01:45:38.941Z,98953.06
2023-04-15T01:46:18.991Z,98936.72
2023-04-15T01:46:59.936Z,98954.19
2023-04-15T01:47:39.954Z,98949.50
2023-04-15T01:48:19.839Z,98947.06
2023-04-15T01:49:00.133Z,98947.78
2023-04-15T01:49:40.818Z,98934.31
2023-04-15T01:50:21.646Z,98956.81
2023-04-15T01:51:05.875Z,98955.50
2023-04-15T01:51:45.924Z,98934.31
2023-04-15T01:52:25.850Z,98938.66
2023-04-15T01:53:05.901Z,98956.16
2023-04-15T01:53:45.829Z,98959.38
2023-04-15T01:54:26.481Z,98945.38
2023-04-15T01:55:07.807Z,98962.63
2023-04-15T01:55:47.966Z,98948.09
2023-04-15T01:56:27.851Z,98965.06
2023-04-15T01:57:07.905Z,98959.63
2023-04-15T01:57:48.825Z,98960.56
2023-04-15T01:58:28.906Z,98950.44
2023-04-15T01:59:09.832Z,98955.66
2023-04-15T02:00:03.818Z,98959.25
2023-04-15T02:00:57.859Z,98952.03
2023-04-15T02:01:45.871Z,98951.03
2023-04-15T02:02:45.507Z,98960.66
2023-04-15T02:03:27.742Z,98959.19
2023-04-15T02:04:07.816Z,98968.72
2023-04-15T02:04:47.961Z,98956.66
2023-04-15T02:05:27.825Z,98955.94
2023-04-15T02:06:07.954Z,98962.09
2023-04-15T02:06:47.839Z,98933.22
2023-04-15T02:07:32.283Z,98953.38
2023-04-15T02:08:12.790Z,98947.28
2023-04-15T02:08:53.292Z,98955.44
2023-04-15T02:09:34.823Z,98955.94
2023-04-15T02:10:16.740Z,98955.94
2023-04-15T02:10:57.830Z,98928.44
2023-04-15T02:11:39.262Z,98948.97
2023-04-15T02:12:20.875Z,98928.25
2023-04-15T02:13:01.146Z,98944.88
2023-04-15T02:13:40.831Z,98953.94
2023-04-15T02:14:21.078Z,98936.72
2023-04-15T02:15:01.803Z,98959.38
2023-04-15T02:15:42.890Z,98946.16
2023-04-15T02:16:24.836Z,98947.47
2023-04-15T02:17:08.330Z,98956.38
2023-04-15T02:17:51.916Z,98957.97
2023-04-15T02:18:31.951Z,98958.34
2023-04-15T02:19:11.796Z,98937.53
2023-04-15T02:19:52.949Z,98945.69
2023-04-15T02:20:32.786Z,98935.69
2023-04-15T02:21:12.905Z,98954.00
2023-04-15T02:21:52.791Z,98955.06
2023-04-15T02:22:33.915Z,98941.94
2023-04-15T02:23:14.822Z,98959.38
2023-04-15T02:23:55.942Z,98965.56
2023-04-15T02:24:37.803Z,98954.31
2023-04-15T02:25:18.014Z,98952.34
2023-04-15T02:25:57.811Z,98960.31
2023-04-15T02:26:37.869Z,98960.75
2023-04-15T02:27:17.842Z,98932.28
2023-04-15T02:27:58.882Z,98946.69
2023-04-15T02:28:38.805Z,98956.63
2023-04-15T02:29:18.863Z,98950.66
2023-04-15T02:29:59.778Z,98966.59
2023-04-15T02:30:41.213Z,98959.72
2023-04-15T02:31:21.924Z,98954.69
2023-04-15T02:32:03.024Z,98953.16
2023-04-15T02:32:44.854Z,98934.16
2023-04-15T02:33:25.149Z,98955.28
2023-04-15T02:34:04.884Z,98950.38
2023-04-15T02:34:46.873Z,98959.03
2023-04-15T02:35:27.822Z,98960.91
2023-04-15T02:36:10.093Z,98962.09
2023-04-15T02:36:49.758Z,98948.72
2023-04-15T02:37:31.126Z,98943.56
2023-04-15T02:38:10.828Z,98955.34
2023-04-15T02:38:51.362Z,98942.78
2023-04-15T02:39:31.822Z,98950.09
2023-04-15T02:40:21.905Z,98956.66
2023-04-15T02:41:01.778Z,98965.44
2023-04-15T02:41:43.783Z,98958.44
2023-04-15T02:42:23.751Z,98954.50
2023-04-15T02:43:05.302Z,98947.56
2023-04-15T02:43:46.797Z,98958.44
2023-04-15T02:44:27.862Z,98941.47
2023-04-15T02:45:07.789Z,98931.00
2023-04-15T02:45:47.925Z,98952.56
2023-04-15T02:46:29.840Z,98946.44
2023-04-15T02:47:11.651Z,98945.25
2023-04-15T02:47:52.912Z,98940.63
2023-04-15T02:48:33.890Z,98947.56
2023-04-15T02:49:14.769Z,98930.91
2023-04-15T02:49:54.851Z,98943.91
2023-04-15T02:50:34.872Z,98943.44
2023-04-15T02:51:24.895Z,98955.50
2023-04-15T02:52:06.776Z,98954.00
2023-04-15T02:52:48.972Z,98955.72
2023-04-15T02:53:28.793Z,98949.06
2023-04-15T02:54:08.846Z,98966.69
2023-04-15T02:54:48.795Z,98962.84
2023-04-15T02:55:28.874Z,98949.31
2023-04-15T02:56:08.785Z,98949.63
2023-04-15T02:56:50.441Z,98955.13
2023-04-15T02:57:30.767Z,98950.28
2023-04-15T02:58:10.922Z,98960.41
2023-04-15T02:58:51.753Z,98941.13
2023-04-15T02:59:31.869Z,98942.88
2023-04-15T03:00:15.788Z,98957.63
2023-04-15T03:00:56.939Z,98959.31
2023-04-15T03:01:36.872Z,98956.03
2023-04-15T03:02:16.966Z,98961.06
2023-04-15T03:03:02.971Z,98952.56
2023-04-15T03:03:42.930Z,98950.84
2023-04-15T03:04:22.806Z,98959.28
2023-04-15T03:05:04.118Z,98972.00
2023-04-15T03:05:45.771Z,98961.50
2023-04-15T03:06:26.312Z,98961.44
2023-04-15T03:07:08.775Z,98942.31
2023-04-15T03:07:48.841Z,98950.28
2023-04-15T03:08:28.750Z,98965.28
2023-04-15T03:09:09.986Z,98938.66
2023-04-15T03:09:49.757Z,98956.66
2023-04-15T03:10:29.843Z,98956.59
2023-04-15T03:11:10.758Z,98942.44
2023-04-15T03:11:53.493Z,98971.50
2023-04-15T03:12:34.768Z,98959.78
2023-04-15T03:13:15.937Z,98965.44
2023-04-15T03:13:55.755Z,98969.44
2023-04-15T03:14:35.898Z,98960.28
2023-04-15T03:15:16.764Z,98972.81
2023-04-15T03:15:56.856Z,98975.88
2023-04-15T03:16:36.753Z,98962.69
2023-04-15T03:17:18.145Z,98965.75
2023-04-15T03:17:57.822Z,98966.19
2023-04-15T03:18:38.392Z,98971.44
2023-04-15T03:19:18.750Z,98975.25
2023-04-15T03:19:58.910Z,98954.56
2023-04-15T03:20:38.775Z,98960.72
2023-04-15T03:21:20.038Z,98970.38
2023-04-15T03:21:59.741Z,98971.69
2023-04-15T03:22:40.842Z,98967.53
2023-04-15T03:23:20.780Z,98969.69
2023-04-15T03:24:00.948Z,98967.38
2023-04-15T03:24:40.751Z,98979.47
2023-04-15T03:25:21.865Z,98975.53
2023-04-15T03:26:04.753Z,98983.28
2023-04-15T03:26:44.878Z,98974.84
2023-04-15T03:27:24.726Z,98979.72
2023-04-15T03:28:06.841Z,98972.00
2023-04-15T03:28:46.734Z,98982.84
2023-04-15T03:29:27.824Z,98978.88
2023-04-15T03:30:07.885Z,98981.50
2023-04-15T03:30:47.823Z,98978.75
2023-04-15T03:31:27.800Z,98967.59
2023-04-15T03:32:07.830Z,98984.66
2023-04-15T03:32:47.829Z,98981.53
2023-04-15T03:33:28.818Z,98977.59
2023-04-15T03:34:08.752Z,98989.31
2023-04-15T03:34:48.783Z,98968.72
2023-04-15T03:35:28.724Z,98991.66
2023-04-15T03:36:08.840Z,98991.06
2023-04-15T03:36:48.793Z,98990.72
2023-04-15T03:37:29.825Z,98982.00
2023-04-15T03:38:09.759Z,98991.06
2023-04-15T03:38:50.193Z,98991.75
2023-04-15T03:39:30.752Z,98995.03
2023-04-15T03:40:12.053Z,98987.38
2023-04-15T03:40:53.722Z,98994.94
2023-04-15T03:41:34.836Z,98988.94
2023-04-15T03:42:14.745Z,98997.00
2023-04-15T03:42:54.834Z,98982.69
2023-04-15T03:43:34.746Z,98991.56
2023-04-15T03:44:14.827Z,98988.84
2023-04-15T03:44:54.753Z,98991.31
2023-04-15T03:45:35.820Z,98988.00
2023-04-15T03:46:15.781Z,98973.50
2023-04-15T03:46:55.986Z,98997.19
2023-04-15T03:47:35.769Z,98990.56
2023-04-15T03:48:18.160Z,98988.84
2023-04-15T03:48:58.806Z,98992.38
2023-04-15T03:49:40.056Z,98986.31
2023-04-15T03:50:19.756Z,98989.59
2023-04-15T03:50:59.812Z,98995.31
2023-04-15T03:51:39.735Z,98982.97
2023-04-15T03:52:19.831Z,98993.34
2023-04-15T03:52:59.877Z,98991.56
2023-04-15T03:53:41.111Z,98978.63
2023-04-15T03:54:22.692Z,98981.25
2023-04-15T03:55:02.789Z,98982.88
2023-04-15T03:55:43.817Z,98982.94
2023-04-15T03:56:23.828Z,98976.69
2023-04-15T03:57:03.714Z,98994.28
2023-04-15T03:57:44.826Z,98996.59
2023-04-15T03:58:25.769Z,98981.88
2023-04-15T03:59:06.000Z,98994.53
2023-04-15T03:59:45.696Z,98977.66
2023-04-15T04:00:26.199Z,99001.06
2023-04-15T04:01:06.752Z,98993.00
2023-04-15T04:01:47.848Z,98998.31
2023-04-15T04:02:29.839Z,98990.94
2023-04-15T04:03:10.039Z,98990.28
2023-04-15T04:03:50.798Z,99001.38
2023-04-15T04:04:31.069Z,98994.13
2023-04-15T04:05:12.698Z,98989.72
2023-04-15T04:05:53.801Z,98985.47
2023-04-15T04:06:33.735Z,98990.38
2023-04-15T04:07:13.796Z,98998.66
2023-04-15T04:07:53.687Z,98993.00
2023-04-15T04:08:33.810Z,99002.75
2023-04-15T04:09:13.711Z,98997.31
2023-04-15T04:09:54.770Z,98997.56
2023-04-15T04:10:34.706Z,99004.38
2023-04-15T04:11:14.805Z,98990.41
2023-04-15T04:11:54.707Z,99001.66
2023-04-15T04:12:34.799Z,99002.88
2023-04-15T04:13:14.700Z,98994.44
2023-04-15T04:13:55.859Z,98990.59
2023-04-15T04:14:36.716Z,98989.47
2023-04-15T04:15:17.805Z,99004.00
2023-04-15T04:15:57.709Z,98998.38
2023-04-15T04:16:37.806Z,99009.16
2023-04-15T04:17:17.764Z,99006.75
2023-04-15T04:17:58.810Z,99005.63
2023-04-15T04:18:39.736Z,98994.25
2023-04-15T04:19:20.294Z,98999.06
2023-04-15T04:20:00.703Z,99003.75
2023-04-15T04:20:41.261Z,99013.19
2023-04-15T04:21:21.670Z,99009.81
2023-04-15T04:22:02.788Z,99012.06
2023-04-15T04:22:46.720Z,99007.50
2023-04-15T04:23:26.771Z,99013.47
2023-04-15T04:24:07.706Z,99011.78
2023-04-15T04:24:47.750Z,98991.16
2023-04-15T04:25:27.692Z,98998.38
2023-04-15T04:26:08.793Z,99003.66
2023-04-15T04:26:48.716Z,99010.00
2023-04-15T04:27:28.952Z,99003.16
2023-04-15T04:28:08.707Z,99015.81
2023-04-15T04:28:48.817Z,99004.28
2023-04-15T04:29:28.725Z,99013.66
2023-04-15T04:30:09.773Z,99016.56
2023-04-15T04:30:49.679Z,99002.59
2023-04-15T04:31:29.825Z,98998.19
2023-04-15T04:32:09.829Z,99015.16
2023-04-15T04:32:49.794Z,98999.59
2023-04-15T04:33:29.720Z,99012.72
2023-04-15T04:34:10.843Z,99005.59
2023-04-15T04:34:50.687Z,98990.25
2023-04-15T04:35:30.815Z,99004.19
2023-04-15T04:36:11.654Z,99002.69
2023-04-15T04:36:51.946Z,99016.84
2023-04-15T04:37:31.676Z,99016.00
2023-04-15T04:38:12.757Z,99005.59
2023-04-15T04:38:52.699Z,98997.44
2023-04-15T04:39:32.856Z,99010.84
2023-04-15T04:40:15.682Z,99014.06
2023-04-15T04:40:55.952Z,99011.41
2023-04-15T04:41:36.663Z,99009.81
2023-04-15T04:42:17.789Z,99009.09
2023-04-15T04:42:57.688Z,99022.94
2023-04-15T04:43:38.794Z,99023.22
2023-04-15T04:44:18.674Z,99001.09
2023-04-15T04:44:58.881Z,99022.28
2023-04-15T04:45:38.677Z,99022.28
2023-04-15T04:46:19.865Z,99020.03
2023-04-15T04:46:59.656Z,99030.25
2023-04-15T04:47:39.794Z,99002.13
2023-04-15T04:48:19.662Z,99012.06
2023-04-15T04:48:59.801Z,99026.59
2023-04-15T04:49:40.695Z,99027.16
2023-04-15T04:50:21.760Z,99016.28
2023-04-15T04:51:02.651Z,99029.13
2023-04-15T04:51:42.754Z,99022.22
2023-04-15T04:52:22.640Z,99021.25
2023-04-15T04:53:02.825Z,99027.50
2023-04-15T04:53:44.668Z,99021.53
2023-04-15T04:54:26.269Z,99011.03
2023-04-15T04:55:06.702Z,99022.28
2023-04-15T04:55:46.756Z,99028.91
2023-04-15T04:56:26.691Z,99027.88
2023-04-15T04:57:08.069Z,99029.00
2023-04-15T04:57:48.686Z,99042.03
2023-04-15T04:58:29.750Z,99038.78
2023-04-15T04:59:09.643Z,99034.00
2023-04-15T04:59:49.758Z,99031.28
2023-04-15T05:00:29.781Z,99020.66
2023-04-15T05:01:10.836Z,99033.34
2023-04-15T05:01:50.699Z,99040.94
2023-04-15T05:02:32.595Z,99044.09
2023-04-15T05:03:13.813Z,99027.44
2023-04-15T05:03:53.889Z,99035.38
2023-04-15T05:04:33.638Z,99050.69
2023-04-15T05:05:15.026Z,99035.88
2023-04-15T05:05:55.662Z,99024.81
2023-04-15T05:06:36.937Z,99032.03
2023-04-15T05:07:17.690Z,99042.81
2023-04-15T05:07:57.751Z,99049.00
2023-04-15T05:08:39.121Z,99032.19
2023-04-15T05:09:20.813Z,99039.81
2023-04-15T05:10:00.682Z,99042.72
2023-04-15T05:10:41.752Z,99041.97
2023-04-15T05:11:21.665Z,99056.19
2023-04-15T05:12:01.848Z,99030.16
2023-04-15T05:12:43.643Z,99040.56
2023-04-15T05:13:23.860Z,99034.56
2023-04-15T05:14:04.715Z,99049.16
2023-04-15T05:14:46.828Z,99041.31
2023-04-15T05:15:26.627Z,99056.88
2023-04-15T05:16:07.496Z,99039.88
2023-04-15T05:16:47.683Z,99063.25
2023-04-15T05:17:27.931Z,99037.28
2023-04-15T05:18:07.634Z,99050.09
2023-04-15T05:18:48.730Z,99052.84
2023-04-15T05:19:28.613Z,99052.19
2023-04-15T05:20:09.799Z,99062.03
2023-04-15T05:20:49.644Z,99054.91
2023-04-15T05:21:31.690Z,99049.84
2023-04-15T05:22:11.666Z,99049.91
2023-04-15T05:22:52.719Z,99057.34
2023-04-15T05:23:32.643Z,99053.59
2023-04-15T05:24:13.722Z,99052.00
2023-04-15T05:24:53.624Z,99047.03
2023-04-15T05:25:33.798Z,99059.47
2023-04-15T05:26:14.623Z,99058.44
2023-04-15T05:26:56.777Z,99061.84
2023-04-15T05:27:37.674Z,99038.69
2023-04-15T05:28:17.811Z,99068.22
2023-04-15T05:28:57.629Z,99069.25
2023-04-15T05:29:37.723Z,99061.84
2023-04-15T05:30:18.635Z,99046.94
2023-04-15T05:30:59.794Z,99065.47
2023-04-15T05:31:39.666Z,99075.13
2023-04-15T05:32:19.771Z,99065.28
2023-04-15T05:32:59.709Z,99073.09
2023-04-15T05:33:40.512Z,99084.13
2023-04-15T05:34:22.650Z,99077.41
2023-04-15T05:35:03.742Z,99071.69
2023-04-15T05:35:43.648Z,99076.06
2023-04-15T05:36:23.726Z,99077.56
2023-04-15T05:37:03.674Z,99081.72
2023-04-15T05:37:43.734Z,99071.03
2023-04-15T05:38:23.630Z,99077.75
2023-04-15T05:39:04.709Z,99072.16
2023-04-15T05:39:44.630Z,99058.91
2023-04-15T05:40:24.902Z,99078.06
2023-04-15T05:41:04.626Z,99064.63
2023-04-15T05:41:45.798Z,99077.88
2023-04-15T05:42:25.621Z,99067.25
2023-04-15T05:43:06.720Z,99075.16
2023-04-15T05:43:46.619Z,99066.53
2023-04-15T05:44:26.890Z,99073.53
2023-04-15T05:45:06.587Z,99073.53
2023-04-15T05:45:46.763Z,99073.53
2023-04-15T05:46:26.707Z,99063.91
2023-04-15T05:47:08.673Z,99079.91
2023-04-15T05:47:48.733Z,99067.47
2023-04-15T05:48:28.699Z,99062.03
2023-04-15T05:49:08.659Z,99073.81
2023-04-15T05:49:48.716Z,99062.03
2023-04-15T05:50:28.608Z,99058.91
2023-04-15T05:51:09.815Z,99071.75
2023-04-15T05:51:49.606Z,99086.94
2023-04-15T05:52:29.714Z,99087.44
2023-04-15T05:53:09.625Z,99067.56
2023-04-15T05:53:49.705Z,99075.44
2023-04-15T05:54:29.622Z,99077.13
2023-04-15T05:55:10.913Z,99096.16
2023-04-15T05:55:50.602Z,99072.06
2023-04-15T05:56:30.760Z,99064.53
2023-04-15T05:57:10.592Z,99090.41
2023-04-15T05:57:50.686Z,99092.78
2023-04-15T05:58:30.623Z,99070.06
2023-04-15T05:59:11.700Z,99081.72
2023-04-15T05:59:51.622Z,99092.47
2023-04-15T06:00:32.152Z,99087.88
2023-04-15T06:01:12.602Z,99082.44
2023-04-15T06:01:53.021Z,99084.31
2023-04-15T06:02:35.686Z,99075.72
2023-04-15T06:03:16.872Z,99079.09
2023-04-15T06:03:57.720Z,99086.28
2023-04-15T06:04:37.842Z,99095.00
2023-04-15T06:05:18.681Z,99088.06
2023-04-15T06:05:58.743Z,99091.28
2023-04-15T06:06:41.610Z,99063.88
2023-04-15T06:07:22.668Z,99093.03
2023-04-15T06:08:05.007Z,99088.66
2023-04-15T06:08:44.673Z,99081.69
2023-04-15T06:09:24.658Z,99079.66
2023-04-15T06:10:04.659Z,99088.09
2023-04-15T06:10:44.591Z,99092.78
2023-04-15T06:11:26.872Z,99083.00
2023-04-15T06:12:08.600Z,99084.69
2023-04-15T06:12:48.674Z,99091.06
2023-04-15T06:13:28.601Z,99084.03
2023-04-15T06:14:08.703Z,99094.28
2023-04-15T06:14:49.613Z,99082.84
2023-04-15T06:15:30.688Z,99092.78
2023-04-15T06:16:11.618Z,99093.81
2023-04-15T06:16:51.733Z,99095.00
2023-04-15T06:17:32.650Z,99085.56
2023-04-15T06:18:13.132Z,99092.56
2023-04-15T06:19:00.971Z,99101.50
2023-04-15T06:19:36.742Z,99102.59
2023-04-15T06:20:23.574Z,99097.63
2023-04-15T06:20:57.673Z,99087.13
2023-04-15T06:21:38.600Z,99099.31
2023-04-15T06:22:18.678Z,99107.88
2023-04-15T06:22:59.642Z,99101.84
2023-04-15T06:23:43.687Z,99108.03
2023-04-15T06:24:23.590Z,99102.44
2023-04-15T06:25:03.657Z,99099.59
2023-04-15T06:25:43.605Z,99109.28
2023-04-15T06:26:23.679Z,99106.56
2023-04-15T06:27:04.603Z,99115.66
2023-04-15T06:27:44.701Z,99105.88
2023-04-15T06:28:24.576Z,99118.47
2023-04-15T06:29:04.698Z,99103.63
2023-04-15T06:29:44.574Z,99130.91
2023-04-15T06:30:24.756Z,99112.34
2023-04-15T06:31:06.642Z,99114.59
2023-04-15T06:31:47.761Z,99117.88
2023-04-15T06:32:27.724Z,99113.06
2023-04-15T06:33:07.736Z,99116.03
2023-04-15T06:33:47.652Z,99125.72
2023-04-15T06:34:27.659Z,99131.22
2023-04-15T06:35:08.569Z,99131.28
2023-04-15T06:35:49.677Z,99131.91
2023-04-15T06:36:32.075Z,99132.03
2023-04-15T06:37:16.344Z,99129.22
2023-04-15T06:37:58.650Z,99140.41
2023-04-15T06:38:38.717Z,99144.06
2023-04-15T06:39:18.600Z,99131.91
2023-04-15T06:39:58.645Z,99143.59
2023-04-15T06:40:38.620Z,99141.97
2023-04-15T06:41:18.689Z,99137.22
2023-04-15T06:41:59.570Z,99147.59
2023-04-15T06:42:39.736Z,99138.41
2023-04-15T06:43:20.610Z,99146.69
2023-04-15T06:44:00.986Z,99147.84
2023-04-15T06:44:41.601Z,99141.25
2023-04-15T06:45:21.673Z,99142.28
2023-04-15T06:46:01.761Z,99149.06
2023-04-15T06:46:41.665Z,99139.44
2023-04-15T06:47:21.616Z,99147.53
2023-04-15T06:48:02.638Z,99148.13
2023-04-15T06:48:43.595Z,99149.66
2023-04-15T06:49:24.656Z,99144.69
2023-04-15T06:50:04.624Z,99124.41
2023-04-15T06:50:47.765Z,99150.91
2023-04-15T06:51:31.563Z,99140.81
2023-04-15T06:52:13.038Z,99156.03
2023-04-15T06:52:52.702Z,99152.69
2023-04-15T06:53:38.135Z,99153.25
2023-04-15T06:54:19.671Z,99157.28
2023-04-15T06:54:59.784Z,99155.41
2023-04-15T06:55:40.751Z,99155.53
2023-04-15T06:56:21.978Z,99148.06
2023-04-15T06:57:06.531Z,99132.34
2023-04-15T06:57:48.207Z,99152.75
2023-04-15T06:58:29.583Z,99150.03
2023-04-15T06:59:09.785Z,99146.28
2023-04-15T06:59:50.652Z,99155.47
2023-04-15T07:00:30.776Z,99161.75
2023-04-15T07:01:11.576Z,99152.59
2023-04-15T07:01:51.985Z,99152.00
2023-04-15T07:02:32.653Z,99166.06
2023-04-15T07:03:13.754Z,99158.19
2023-04-15T07:03:57.599Z,99152.75
2023-04-15T07:04:38.088Z,99161.75
2023-04-15T07:05:19.621Z,99167.22
2023-04-15T07:05:59.797Z,99162.19
2023-04-15T07:06:40.620Z,99172.50
2023-04-15T07:07:20.657Z,99170.13
2023-04-15T07:08:03.932Z,99159.38
2023-04-15T07:08:45.633Z,99166.09
2023-04-15T07:09:27.526Z,99172.22
2023-04-15T07:10:07.702Z,99164.50
2023-04-15T07:10:47.575Z,99176.97
2023-04-15T07:11:29.681Z,99165.94
2023-04-15T07:12:10.624Z,99161.41
2023-04-15T07:12:52.923Z,99172.31
2023-04-15T07:13:34.604Z,99172.78
2023-04-15T07:14:20.876Z,99174.53
2023-04-15T07:15:03.718Z,99178.94
2023-04-15T07:16:00.776Z,99177.25
2023-04-15T07:16:57.664Z,99174.63
2023-04-15T07:18:14.592Z,99181.41
2023-04-15T07:19:09.556Z,99181.16
2023-04-15T07:20:03.527Z,99172.94
2023-04-15T07:21:00.542Z,99180.16
2023-04-15T07:21:54.546Z,99177.25
2023-04-15T07:22:48.529Z,99182.25
2023-04-15T07:23:42.577Z,99176.41
2023-04-15T07:24:37.519Z,99190.13
2023-04-15T07:25:32.540Z,99189.47
2023-04-15T07:26:23.567Z,99186.56
2023-04-15T07:27:01.280Z,99181.69
2023-04-15T07:27:48.514Z,99184.75
2023-04-15T07:28:22.615Z,99181.53
2023-04-15T07:29:11.510Z,99187.53
2023-04-15T07:29:45.656Z,99159.41
2023-04-15T07:30:35.581Z,99174.53
2023-04-15T07:31:10.809Z,99184.13
2023-04-15T07:31:50.540Z,99194.91
2023-04-15T07:32:31.095Z,99186.84
2023-04-15T07:33:12.522Z,99188.97
2023-04-15T07:33:53.347Z,99186.84
2023-04-15T07:34:34.537Z,99190.31
2023-04-15T07:35:15.647Z,99188.25
2023-04-15T07:35:56.559Z,99174.19
2023-04-15T07:36:36.949Z,99178.16
2023-04-15T07:37:17.533Z,99179.84
2023-04-15T07:37:57.858Z,99187.72
2023-04-15T07:38:41.552Z,99180.13
2023-04-15T07:39:25.983Z,99193.28
2023-04-15T07:40:07.583Z,99172.81
2023-04-15T07:40:48.384Z,99188.13
2023-04-15T07:41:30.548Z,99191.88
2023-04-15T07:42:10.632Z,99183.34
2023-04-15T07:42:51.547Z,99180.25
2023-04-15T07:43:36.652Z,99184.66
2023-04-15T07:44:18.526Z,99186.44
2023-04-15T07:44:58.598Z,99191.03
2023-04-15T07:45:40.532Z,99189.84
2023-04-15T07:46:24.613Z,99193.75
2023-04-15T07:47:04.564Z,99192.38
2023-04-15T07:47:44.623Z,99192.38
2023-04-15T07:48:25.528Z,99192.81
2023-04-15T07:49:05.565Z,99183.38
2023-04-15T07:49:45.550Z,99186.25
2023-04-15T07:50:26.281Z,99193.41
2023-04-15T07:51:09.534Z,99189.06
2023-04-15T07:51:50.585Z,99195.88
2023-04-15T07:52:31.484Z,99194.75
2023-04-15T07:53:13.638Z,99195.88
2023-04-15T07:53:55.551Z,99202.38
2023-04-15T07:54:36.719Z,99186.91
2023-04-15T07:55:17.529Z,99191.09
2023-04-15T07:55:59.044Z,99203.56
2023-04-15T07:56:42.564Z,99204.59
2023-04-15T07:57:22.682Z,99203.84
2023-04-15T07:58:03.501Z,99203.38
2023-04-15T07:58:43.654Z,99184.22
2023-04-15T07:59:24.541Z,99197.56
2023-04-15T08:00:10.327Z,99204.34
2023-04-15T08:00:51.491Z,99214.81
2023-04-15T08:01:31.655Z,99203.38
2023-04-15T08:02:11.550Z,99200.84
2023-04-15T08:02:53.379Z,99213.41
2023-04-15T08:03:34.632Z,99197.47
2023-04-15T08:04:14.806Z,99214.53
2023-04-15T08:04:55.634Z,99200.78